KHSV/HSV METAR and TAF weather

Enter ICAO airport designator
Station Type Date Time Source
KHSV METAR 2020/01/18 15:53 UTC NOAA

KHSV 181553Z 17014KT 10SM -RA OVC021 09/06 A3021 RMK AO2 RAB08 SLP230 P0000 T00940061


Station Type Date Time Source
KHSV Decoded METAR 2020/01/18 15:53 UTC NOAA

HUNTSVILLE INTERNATIONAL JONES FIELD, AL, United States (KHSV) 34-39N 086-47W 191M
Jan 18, 2020 - 10:53 AM EST / 2020.01.18 1553 UTC
Wind: from the S (170 degrees) at 16 MPH (14 KT):0
Visibility: 10 mile(s):0
Sky conditions: overcast
Weather: light rain
Precipitation last hour: A trace
Temperature: 48.9 F (9.4 C)
Dew Point: 43.0 F (6.1 C)
Relative Humidity: 79%
Pressure (altimeter): 30.21 in. Hg (1023 hPa)
ob: KHSV 181553Z 17014KT 10SM -RA OVC021 09/06 A3021 RMK AO2 RAB08 SLP230 P0000 T00940061
cycle: 16

Station Type Date Time Source
KHSV TAF 2020/01/18 12:54 UTC NOAA

TAF KHSV 181152Z 1812/1912 16020G28KT P6SM OVC035 WS020/17048KT
FM181400 17020G28KT P6SM VCSH OVC015 WS020/19048KT
FM181600 19015G23KT 6SM SHRA BR BKN008 OVC015 WS020/20048KT
FM182200 20010G18KT 6SM SHRA BR BKN008 OVC015
FM190100 31010G18KT P6SM BKN015 OVC100
FM190700 34010G18KT P6SM SCT250

Example: see airport list